x

North Nomad (46184) Wave Buoy

6:00pm - Fri 30th Jan 2015 All times are AKST. -9 hours from GMT.

  • Sig Wave height 6.6ft
  • Peak Period 12s
  • Wind
    25mph, 27mph gusts
  • Sea Temp 46°f
  • Air Temp 45°f
  • Sea Pressure 1024.1mb
  • North Nomad
  • North Nomad

More Historic Weather Station data

Upgrade to MSW Pro to gain access to the past 30 days of data for over 8000 Wavebouys and Weather Stations around the globe.

Join Pro

Comparision Forecast

View Surf forecast
   
Fri 01/30 6:00pm 6.5ft 12s 25 27 mph 1024.1mb 46f 45f
5:00pm 6ft 11s 22 27 mph 1024.5mb 46f 45f
4:00pm 6ft 12s 22 25 mph 1025mb 46f 45f
3:00pm 6ft 14s 20 22 mph 1025.4mb 46f 45f
2:00pm 6ft 12s 18 22 mph 1025.2mb 46f 45f
1:00pm 6ft 11s 18 22 mph 1025.8mb 46f 45f
12:00pm 6.5ft 12s 18 22 mph 1026.2mb 46f 45f
11:00am 6.5ft 13s 16 18 mph 1026.5mb 46f 46f
10:00am 6.5ft 10s 13 16 mph 1026.3mb 46f 45f
9:00am 6.5ft 11s 13 16 mph 1025.8mb 46f 45f
8:00am 7ft 11s 13 16 mph 1025.1mb 46f 45f
7:00am 7ft 12s 13 16 mph 1024.3mb 46f 45f
6:00am 7ft 10s 11 16 mph 1024.3mb 46f 45f
5:00am 7ft 12s 11 16 mph 1024.4mb 46f 45f
4:00am 7ft 12s 11 16 mph 1024.3mb 46f 45f
3:00am 6.5ft 10s 13 16 mph 1023.8mb 46f 44f
2:00am 7.5ft 13s 13 16 mph 1023.4mb 46f 44f
1:00am 7ft 8s 13 16 mph 1023mb 46f 45f
12:00am 7ft 14s 11 13 mph 1022.8mb 46f 45f
Thu 01/29 11:00pm 7ft 10s 11 13 mph 1023mb 46f 45f
10:00pm 7.5ft 10s 11 13 mph 1022.5mb 46f 45f
9:00pm 7ft 13s 11 13 mph 1022.4mb 46f 45f
8:00pm 7ft 10s 9 13 mph 1022.3mb 46f 45f
7:00pm 8ft 9s 9 11 mph 1022mb 46f 45f
6:00pm 7ft 8s 11 13 mph 1022.4mb 46f 46f
5:00pm 7.5ft 10s 11 16 mph 1022.2mb 46f 46f
4:00pm 7.5ft 9s 11 13 mph 1021.9mb 46f 46f
3:00pm 7.5ft 8s 9 11 mph 1021.9mb 46f 46f
2:00pm 8.5ft 10s 9 11 mph 1021.9mb 46f 46f
1:00pm 8ft 10s 11 13 mph 1022.1mb 46f 46f
12:00pm 8.5ft 9s 11 13 mph 1022mb 46f 46f
11:00am 8.5ft 10s 9 11 mph 1021.7mb 46f 46f
10:00am 9ft 9s 9 11 mph 1021.9mb 46f 46f
9:00am 8.5ft 10s 9 11 mph 1021.2mb 46f 46f
8:00am 8.5ft 10s 9 11 mph 1020.8mb 46f 46f
7:00am 7.5ft 11s 9 11 mph 1020.4mb 46f 46f
6:00am 8ft 10s 11 13 mph 1020.1mb 46f 46f
5:00am 8.5ft 10s 9 11 mph 1019.5mb 46f 46f
4:00am 8ft 11s 11 13 mph 1019.3mb 46f 46f
3:00am 8.5ft 10s 11 16 mph 1019.2mb 46f 46f
2:00am 9ft 10s 13 16 mph 1018.7mb 46f 46f
1:00am 10ft 10s 13 18 mph 1018.1mb 46f 46f
12:00am 10ft 9s 16 18 mph 1017.2mb 46f 46f
Wed 01/28 11:00pm 10ft 10s 13 18 mph 1016.6mb 46f 46f
10:00pm 10ft 9s 13 18 mph 1015.5mb 46f 46f
9:00pm 10ft 10s 18 20 mph 1014.5mb 46f 46f
8:00pm 10ft 9s 16 18 mph 1013.7mb 46f 46f
7:00pm 10ft 10s 18 20 mph 1012.8mb 46f 46f
6:00pm 9ft 10s 18 22 mph 1011.8mb 46f 47f
5:00pm 10ft 10s 13 18 mph 1011.3mb 46f 47f
4:00pm 10.5ft 9s 13 20 mph 1010.5mb 46f 47f
3:00pm 10.5ft 10s 9 13 mph 1010.3mb 46f 46f
2:00pm 10.5ft 10s 11 13 mph 1010mb 46f 46f
1:00pm 10.5ft 9s 11 13 mph 1009mb 46f 46f
12:00pm 9.5ft 10s 16 20 mph 1007.8mb 46f 47f
11:00am 9.5ft 11s 16 22 mph 1006.4mb 46f 47f
10:00am 9.5ft 8s 16 18 mph 1004.9mb 46f 47f
9:00am 10ft 9s 11 16 mph 1004.4mb 46f 47f
8:00am 9ft 8s 11 13 mph 1005mb 46f 47f
7:00am 9ft 9s 13 16 mph 1006mb 46f 46f
6:00am 8ft 10s 9 11 mph 1006.7mb 46f 46f
5:00am 8ft 8s 9
mph
1008mb 46f 46f
4:00am 8.5ft 8s 9 11 mph 1008.5mb 46f 46f
3:00am 8ft 9s 9
mph
1009mb 46f 46f
2:00am 9ft 8s 9
mph
1009.3mb 46f 47f
1:00am 9ft 9s 9 13 mph 1009.5mb 46f 47f
12:00am 9.5ft 8s 11 13 mph 1009.3mb 46f 47f
Tue 01/27 11:00pm 10ft 8s 13 16 mph 1009.1mb 46f 47f
10:00pm 10.5ft 8s 18 20 mph 1008.6mb 46f 47f
9:00pm 11ft 7s 25 29 mph 1008mb 46f 47f
8:00pm 10ft 7s 29 34 mph 1007.5mb 46f 47f
7:00pm 9ft 6s 29 38 mph 1007.8mb 46f 46f
6:00pm 8ft 6s 31 40 mph 1008mb 46f 46f
5:00pm 8ft 5s 29 38 mph 1009mb 46f 46f
4:00pm 7ft 5s 27 34 mph 1010.1mb 46f 46f
3:00pm 6ft 4s 25 29 mph 1010.9mb 46f 46f
2:00pm 6ft 10s 22 29 mph 1011.5mb 46f 45f
1:00pm 5.5ft 10s 22 27 mph 1012.3mb 46f 45f
12:00pm 5ft 9s 22 25 mph 1012.8mb 46f 44f
11:00am 5ft 11s 20 25 mph 1013.4mb 46f 44f
10:00am 5ft 11s 16 22 mph 1013.6mb 46f 43f
9:00am 5ft 11s 11 16 mph 1013.4mb 46f 43f
8:00am 5ft 10s 13 16 mph 1013mb 46f 43f
7:00am 5ft 11s 7 9 mph 1012.7mb 46f 42f
6:00am 5ft 10s 7 9 mph 1012.7mb 46f 42f
5:00am 6ft 10s 4 9 mph 1012.9mb 46f 42f